createdAt,value
2017-02-15T00:00:12.615Z,5.47
2017-02-15T00:01:13.028Z,5.46
2017-02-15T00:02:12.619Z,5.41
2017-02-15T00:03:13.040Z,5.33
2017-02-15T00:04:12.646Z,5.35
2017-02-15T00:05:12.672Z,5.33
2017-02-15T00:06:12.688Z,5.33
2017-02-15T00:07:12.697Z,5.3
2017-02-15T00:08:13.096Z,5.35
2017-02-15T00:09:12.705Z,5.36
2017-02-15T00:10:13.111Z,5.33
2017-02-15T00:11:13.139Z,5.33
2017-02-15T00:12:12.741Z,5.3
2017-02-15T00:13:13.150Z,5.29
2017-02-15T00:14:13.155Z,5.38
2017-02-15T00:15:13.177Z,5.33
2017-02-15T00:16:12.784Z,5.23
2017-02-15T00:17:13.226Z,5.29
2017-02-15T00:18:12.824Z,5.28
2017-02-15T00:19:13.240Z,5.25
2017-02-15T00:20:13.220Z,5.29
2017-02-15T00:21:13.250Z,5.23
2017-02-15T00:22:13.363Z,5.21
2017-02-15T00:23:13.386Z,5.17
2017-02-15T00:24:13.363Z,5.18
2017-02-15T00:25:13.484Z,5.26
2017-02-15T00:26:12.937Z,5.18
2017-02-15T00:27:13.023Z,5.23
2017-02-15T00:28:12.947Z,5.18
2017-02-15T00:29:12.957Z,5.17
2017-02-15T00:30:12.964Z,5.25
2017-02-15T00:31:12.963Z,5.2
2017-02-15T00:32:12.964Z,5.23
2017-02-15T00:33:12.993Z,5.18
2017-02-15T00:34:12.992Z,5.21
2017-02-15T00:35:13.011Z,5.26
2017-02-15T00:36:13.426Z,5.21
2017-02-15T00:37:13.008Z,5.2
2017-02-15T00:38:13.441Z,5.21
2017-02-15T00:39:13.038Z,5.21
2017-02-15T00:40:13.051Z,5.25
2017-02-15T00:41:12.683Z,5.2
2017-02-15T00:42:13.095Z,5.2
2017-02-15T00:43:13.075Z,5.2
2017-02-15T00:44:13.503Z,5.14
2017-02-15T00:45:13.533Z,5.11
2017-02-15T00:46:13.125Z,5.1
2017-02-15T00:47:13.549Z,5.17
2017-02-15T00:48:13.138Z,5.1
2017-02-15T00:49:13.584Z,5.12
2017-02-15T00:50:13.168Z,5.15
2017-02-15T00:51:13.182Z,5.15
2017-02-15T00:52:13.199Z,5.05
2017-02-15T00:53:13.186Z,5.11
2017-02-15T00:54:13.215Z,5.12
2017-02-15T00:55:13.707Z,5.1
2017-02-15T00:56:13.263Z,5.07
2017-02-15T00:57:13.657Z,5.07
2017-02-15T00:58:13.678Z,5.11
2017-02-15T00:59:12.867Z,5.04
2017-02-15T01:00:13.315Z,5.05
2017-02-15T01:01:13.691Z,5.04
2017-02-15T01:02:13.696Z,5.02
2017-02-15T01:03:13.307Z,4.94
2017-02-15T01:04:13.706Z,5.05
2017-02-15T01:05:13.312Z,4.99
2017-02-15T01:06:13.753Z,4.94
2017-02-15T01:07:13.340Z,5.02
2017-02-15T01:08:13.768Z,4.9
2017-02-15T01:09:13.799Z,5.1
2017-02-15T01:10:13.413Z,5
2017-02-15T01:11:13.801Z,4.99
2017-02-15T01:12:13.813Z,4.89
2017-02-15T01:13:13.830Z,4.87
2017-02-15T01:14:13.823Z,4.92
2017-02-15T01:15:13.468Z,4.99
2017-02-15T01:16:13.856Z,4.96
2017-02-15T01:17:13.866Z,4.97
2017-02-15T01:18:13.976Z,4.92
2017-02-15T01:19:14.098Z,4.92
2017-02-15T01:20:14.024Z,4.93
2017-02-15T01:21:14.007Z,4.84
2017-02-15T01:22:14.029Z,4.92
2017-02-15T01:23:14.029Z,4.9
2017-02-15T01:24:14.052Z,4.87
2017-02-15T01:25:14.042Z,4.86
2017-02-15T01:26:13.697Z,4.93
2017-02-15T01:27:14.108Z,4.86
2017-02-15T01:28:13.710Z,4.8
2017-02-15T01:29:14.107Z,4.86
2017-02-15T01:30:13.724Z,4.86
2017-02-15T01:31:14.136Z,4.87
2017-02-15T01:32:14.131Z,4.78
2017-02-15T01:33:14.133Z,4.86
2017-02-15T01:34:14.147Z,4.86
2017-02-15T01:35:14.130Z,4.87
2017-02-15T01:36:14.176Z,4.84
2017-02-15T01:37:13.763Z,4.86
2017-02-15T01:38:14.198Z,4.87
2017-02-15T01:39:14.199Z,4.82
2017-02-15T01:40:14.182Z,4.84
2017-02-15T01:41:14.209Z,4.8
2017-02-15T01:42:14.224Z,4.82
2017-02-15T01:43:14.226Z,4.71
2017-02-15T01:44:14.236Z,4.7
2017-02-15T01:45:14.251Z,4.74
2017-02-15T01:46:13.777Z,4.71
2017-02-15T01:47:14.203Z,4.75
2017-02-15T01:48:13.809Z,4.7
2017-02-15T01:49:14.226Z,4.74
2017-02-15T01:50:14.233Z,4.77
2017-02-15T01:51:14.234Z,4.7
2017-02-15T01:52:14.268Z,4.66
2017-02-15T01:53:14.247Z,4.6
2017-02-15T01:54:14.340Z,4.7
2017-02-15T01:55:14.284Z,4.67
2017-02-15T01:56:14.306Z,4.63
2017-02-15T01:57:14.295Z,4.6
2017-02-15T01:58:13.925Z,4.56
2017-02-15T01:59:14.330Z,4.7
2017-02-15T02:00:14.328Z,4.7
2017-02-15T02:01:14.379Z,4.68
2017-02-15T02:02:14.354Z,4.67
2017-02-15T02:03:14.379Z,4.7
2017-02-15T02:04:14.380Z,4.55
2017-02-15T02:05:14.423Z,4.6
2017-02-15T02:06:13.993Z,4.67
2017-02-15T02:07:14.025Z,4.63
2017-02-15T02:08:14.411Z,4.6
2017-02-15T02:09:14.030Z,4.62
2017-02-15T02:10:14.642Z,4.59
2017-02-15T02:11:14.449Z,4.6
2017-02-15T02:12:14.473Z,4.59
2017-02-15T02:13:14.502Z,4.55
2017-02-15T02:14:14.091Z,4.53
2017-02-15T02:15:14.482Z,4.58
2017-02-15T02:16:14.487Z,4.5
2017-02-15T02:17:14.536Z,4.48
2017-02-15T02:18:14.521Z,4.52
2017-02-15T02:19:14.131Z,4.45
2017-02-15T02:20:14.581Z,4.55
2017-02-15T02:21:14.161Z,4.5
2017-02-15T02:22:14.561Z,4.53
2017-02-15T02:23:14.578Z,4.44
2017-02-15T02:24:14.583Z,4.44
2017-02-15T02:25:14.201Z,4.32
2017-02-15T02:26:14.615Z,4.35
2017-02-15T02:27:14.635Z,4.42
2017-02-15T02:28:14.636Z,4.38
2017-02-15T02:29:14.643Z,4.37
2017-02-15T02:30:14.643Z,4.35
2017-02-15T02:31:14.663Z,4.34
2017-02-15T02:32:14.284Z,4.32
2017-02-15T02:33:14.692Z,4.37
2017-02-15T02:34:14.713Z,4.31
2017-02-15T02:35:14.301Z,4.42
2017-02-15T02:36:14.329Z,4.35
2017-02-15T02:37:14.324Z,4.26
2017-02-15T02:38:14.733Z,4.31
2017-02-15T02:39:14.749Z,4.24
2017-02-15T02:40:14.751Z,4.31
2017-02-15T02:41:14.378Z,4.3
2017-02-15T02:42:14.778Z,4.28
2017-02-15T02:43:14.798Z,4.26
2017-02-15T02:44:14.817Z,4.28
2017-02-15T02:45:14.815Z,4.32
2017-02-15T02:46:14.824Z,4.32
2017-02-15T02:47:14.843Z,4.35
2017-02-15T02:48:14.839Z,4.32
2017-02-15T02:49:14.868Z,4.17
2017-02-15T02:50:14.867Z,4.2
2017-02-15T02:51:14.873Z,4.2
2017-02-15T02:52:14.874Z,4.32
2017-02-15T02:53:14.884Z,4.23
2017-02-15T02:54:14.510Z,4.22
2017-02-15T02:55:14.918Z,4.22
2017-02-15T02:56:14.927Z,4.22
2017-02-15T02:57:14.537Z,4.19
2017-02-15T02:58:14.947Z,4.19
2017-02-15T02:59:14.966Z,4.17
2017-02-15T03:00:14.558Z,4.22
2017-02-15T03:01:29.501Z,4.19
2017-02-15T03:02:14.996Z,4.23
2017-02-15T03:03:14.615Z,4.2
2017-02-15T03:04:15.023Z,4.14
2017-02-15T03:05:15.038Z,4.23
2017-02-15T03:06:14.649Z,4.16
2017-02-15T03:07:15.025Z,4.2
2017-02-15T03:08:15.170Z,4.23
2017-02-15T03:09:15.066Z,4.2
2017-02-15T03:10:15.086Z,4.3
2017-02-15T03:11:15.093Z,4.2
2017-02-15T03:12:15.092Z,4.17
2017-02-15T03:13:15.097Z,4.24
2017-02-15T03:14:15.108Z,4.23
2017-02-15T03:15:14.727Z,4.17
2017-02-15T03:16:15.147Z,4.13
2017-02-15T03:17:15.161Z,4.19
2017-02-15T03:18:15.271Z,4.22
2017-02-15T03:19:14.788Z,4.2
2017-02-15T03:20:14.884Z,4.16
2017-02-15T03:21:15.286Z,4.14
2017-02-15T03:22:15.290Z,4.14
2017-02-15T03:23:15.295Z,4.16
2017-02-15T03:24:15.298Z,4.16
2017-02-15T03:25:14.838Z,4.19
2017-02-15T03:26:15.318Z,4.16
2017-02-15T03:27:15.326Z,4.16
2017-02-15T03:28:15.330Z,4.13
2017-02-15T03:29:14.946Z,4.08
2017-02-15T03:30:14.948Z,4.1
2017-02-15T03:31:15.006Z,4.08
2017-02-15T03:32:14.996Z,4.04
2017-02-15T03:33:15.002Z,4.05
2017-02-15T03:34:15.428Z,4.12
2017-02-15T03:35:15.435Z,4.01
2017-02-15T03:36:14.952Z,4.01
2017-02-15T03:37:15.456Z,3.99
2017-02-15T03:38:15.452Z,4.04
2017-02-15T03:39:15.373Z,4.13
2017-02-15T03:40:15.392Z,4.08
2017-02-15T03:41:15.005Z,4.08
2017-02-15T03:42:15.520Z,4.01
2017-02-15T03:43:15.418Z,3.99
2017-02-15T03:44:15.039Z,3.95
2017-02-15T03:45:15.536Z,3.95
2017-02-15T03:46:15.561Z,4.04
2017-02-15T03:47:15.567Z,4.01
2017-02-15T03:48:15.640Z,3.96
2017-02-15T03:49:15.598Z,3.96
2017-02-15T03:50:15.499Z,3.96
2017-02-15T03:51:15.532Z,3.95
2017-02-15T03:52:15.521Z,3.92
2017-02-15T03:53:15.520Z,3.87
2017-02-15T03:54:15.142Z,3.98
2017-02-15T03:55:15.550Z,3.88
2017-02-15T03:56:15.545Z,3.92
2017-02-15T03:57:15.571Z,3.84
2017-02-15T03:58:15.578Z,3.92
2017-02-15T03:59:15.174Z,3.86
2017-02-15T04:00:15.594Z,3.86
2017-02-15T04:01:15.598Z,3.84
2017-02-15T04:02:15.209Z,3.86
2017-02-15T04:03:15.625Z,3.91
2017-02-15T04:04:15.643Z,3.88
2017-02-15T04:05:15.626Z,3.87
2017-02-15T04:06:15.263Z,3.96
2017-02-15T04:07:15.666Z,3.88
2017-02-15T04:08:15.671Z,3.87
2017-02-15T04:09:15.702Z,3.86
2017-02-15T04:10:15.309Z,3.92
2017-02-15T04:11:15.708Z,3.86
2017-02-15T04:12:15.720Z,3.76
2017-02-15T04:13:15.724Z,3.8
2017-02-15T04:14:15.745Z,3.78
2017-02-15T04:15:15.727Z,3.86
2017-02-15T04:16:15.761Z,3.81
2017-02-15T04:17:15.774Z,3.78
2017-02-15T04:18:15.772Z,3.81
2017-02-15T04:19:15.781Z,3.84
2017-02-15T04:20:15.399Z,3.84
2017-02-15T04:21:15.803Z,3.84
2017-02-15T04:22:15.816Z,3.78
2017-02-15T04:23:15.836Z,3.78
2017-02-15T04:24:15.437Z,3.78
2017-02-15T04:25:15.837Z,3.83
2017-02-15T04:26:15.461Z,3.8
2017-02-15T04:27:15.873Z,3.81
2017-02-15T04:28:15.885Z,3.8
2017-02-15T04:29:15.482Z,3.81
2017-02-15T04:30:15.875Z,3.84
2017-02-15T04:31:15.906Z,3.84
2017-02-15T04:32:15.913Z,3.8
2017-02-15T04:33:15.926Z,3.83
2017-02-15T04:34:15.949Z,3.69
2017-02-15T04:35:15.964Z,3.81
2017-02-15T04:36:15.571Z,3.78
2017-02-15T04:37:15.947Z,3.81
2017-02-15T04:38:15.977Z,3.77
2017-02-15T04:39:15.972Z,3.66
2017-02-15T04:40:15.587Z,3.7
2017-02-15T04:41:16.024Z,3.8
2017-02-15T04:42:15.635Z,3.78
2017-02-15T04:43:16.028Z,3.77
2017-02-15T04:44:16.110Z,3.69
2017-02-15T04:45:16.045Z,3.76
2017-02-15T04:46:16.050Z,3.62
2017-02-15T04:47:16.077Z,3.74
2017-02-15T04:48:16.082Z,3.63
2017-02-15T04:49:16.099Z,3.7
2017-02-15T04:50:16.096Z,3.66
2017-02-15T04:51:15.714Z,3.68
2017-02-15T04:52:16.135Z,3.63
2017-02-15T04:53:16.136Z,3.65
2017-02-15T04:54:15.727Z,3.63
2017-02-15T04:55:16.147Z,3.66
2017-02-15T04:56:16.140Z,3.66
2017-02-15T04:57:16.162Z,3.68
2017-02-15T04:58:15.775Z,3.69
2017-02-15T04:59:16.194Z,3.69
2017-02-15T05:00:15.817Z,3.63
2017-02-15T05:01:16.236Z,3.68
2017-02-15T05:02:16.227Z,3.6
2017-02-15T05:03:16.243Z,3.62
2017-02-15T05:04:16.245Z,3.6
2017-02-15T05:05:16.261Z,3.58
2017-02-15T05:06:16.281Z,3.51
2017-02-15T05:07:15.858Z,3.66
2017-02-15T05:08:16.265Z,3.65
2017-02-15T05:09:16.285Z,3.6
2017-02-15T05:10:16.297Z,3.53
2017-02-15T05:11:16.293Z,3.51
2017-02-15T05:12:16.329Z,3.6
2017-02-15T05:13:16.324Z,3.63
2017-02-15T05:14:15.729Z,3.56
2017-02-15T05:15:16.436Z,3.6
2017-02-15T05:16:16.361Z,3.51
2017-02-15T05:17:16.362Z,3.51
2017-02-15T05:18:15.993Z,3.55
2017-02-15T05:19:16.410Z,3.53
2017-02-15T05:20:16.403Z,3.51
2017-02-15T05:21:16.411Z,3.56
2017-02-15T05:22:16.029Z,3.58
2017-02-15T05:23:16.431Z,3.47
2017-02-15T05:24:16.456Z,3.51
2017-02-15T05:25:16.502Z,3.5
2017-02-15T05:26:16.453Z,3.51
2017-02-15T05:27:16.478Z,3.58
2017-02-15T05:28:16.077Z,3.58
2017-02-15T05:29:16.502Z,3.59
2017-02-15T05:30:16.577Z,3.48
2017-02-15T05:31:16.606Z,3.44
2017-02-15T05:32:16.103Z,3.55
2017-02-15T05:33:16.629Z,3.5
2017-02-15T05:34:16.130Z,3.45
2017-02-15T05:35:16.632Z,3.51
2017-02-15T05:36:16.646Z,3.47
2017-02-15T05:37:16.157Z,3.44
2017-02-15T05:38:16.666Z,3.44
2017-02-15T05:39:15.779Z,3.42
2017-02-15T05:40:16.182Z,3.51
2017-02-15T05:41:16.672Z,3.51
2017-02-15T05:42:16.216Z,3.37
2017-02-15T05:43:16.701Z,3.45
2017-02-15T05:44:16.736Z,3.44
2017-02-15T05:45:16.745Z,3.45
2017-02-15T05:46:16.723Z,3.48
2017-02-15T05:47:16.735Z,3.45
2017-02-15T05:48:16.742Z,3.42
2017-02-15T05:49:16.749Z,3.47
2017-02-15T05:50:16.750Z,3.44
2017-02-15T05:51:16.754Z,3.47
2017-02-15T05:52:16.765Z,3.4
2017-02-15T05:53:16.777Z,3.47
2017-02-15T05:54:16.777Z,3.45
2017-02-15T05:55:16.785Z,3.41
2017-02-15T05:56:16.459Z,3.47
2017-02-15T05:57:16.792Z,3.47
2017-02-15T05:58:16.778Z,3.5
2017-02-15T05:59:16.441Z,3.4
2017-02-15T06:00:16.455Z,3.41
2017-02-15T06:01:16.801Z,3.4
2017-02-15T06:02:16.819Z,3.45
2017-02-15T06:03:16.823Z,3.45
2017-02-15T06:04:16.474Z,3.44
2017-02-15T06:05:16.493Z,3.47
2017-02-15T06:06:16.847Z,3.36
2017-02-15T06:07:16.833Z,3.44
2017-02-15T06:08:16.558Z,3.42
2017-02-15T06:09:16.887Z,3.4
2017-02-15T06:10:16.879Z,3.41
2017-02-15T06:11:16.585Z,3.26
2017-02-15T06:12:16.117Z,3.31
2017-02-15T06:13:16.592Z,3.28
2017-02-15T06:14:16.610Z,3.31
2017-02-15T06:15:16.935Z,3.42
2017-02-15T06:16:16.946Z,3.41
2017-02-15T06:17:16.662Z,3.4
2017-02-15T06:18:16.970Z,3.32
2017-02-15T06:19:16.976Z,3.28
2017-02-15T06:20:16.986Z,3.29
2017-02-15T06:21:16.978Z,3.4
2017-02-15T06:22:17.014Z,3.42
2017-02-15T06:23:17.014Z,3.26
2017-02-15T06:24:16.707Z,3.28
2017-02-15T06:25:17.042Z,3.42
2017-02-15T06:26:17.066Z,3.28
2017-02-15T06:27:17.051Z,3.28
2017-02-15T06:28:16.667Z,3.32
2017-02-15T06:29:16.687Z,3.37
2017-02-15T06:30:17.103Z,3.31
2017-02-15T06:31:17.099Z,3.36
2017-02-15T06:32:16.714Z,3.31
2017-02-15T06:33:17.099Z,3.28
2017-02-15T06:34:17.100Z,3.32
2017-02-15T06:35:17.210Z,3.31
2017-02-15T06:36:17.135Z,3.28
2017-02-15T06:37:16.751Z,3.37
2017-02-15T06:38:17.158Z,3.28
2017-02-15T06:39:17.172Z,3.31
2017-02-15T06:40:17.182Z,3.37
2017-02-15T06:41:16.798Z,3.29
2017-02-15T06:42:17.197Z,3.32
2017-02-15T06:43:17.209Z,3.34
2017-02-15T06:44:16.804Z,3.34
2017-02-15T06:45:16.808Z,3.31
2017-02-15T06:46:17.240Z,3.29
2017-02-15T06:47:17.240Z,3.32
2017-02-15T06:48:17.256Z,3.37
2017-02-15T06:49:17.253Z,3.32
2017-02-15T06:50:16.857Z,3.31
2017-02-15T06:51:17.293Z,3.4
2017-02-15T06:52:16.896Z,3.4
2017-02-15T06:53:17.415Z,3.32
2017-02-15T06:54:17.432Z,3.4
2017-02-15T06:55:16.956Z,3.32
2017-02-15T06:56:16.930Z,3.41
2017-02-15T06:57:16.933Z,3.28
2017-02-15T06:58:17.475Z,3.29
2017-02-15T06:59:17.473Z,3.36
2017-02-15T07:00:17.478Z,3.45
2017-02-15T07:01:17.488Z,3.45
2017-02-15T07:02:16.982Z,3.42
2017-02-15T07:03:17.499Z,3.4
2017-02-15T07:04:17.010Z,3.42
2017-02-15T07:05:17.014Z,3.47
2017-02-15T07:06:17.508Z,3.51
2017-02-15T07:07:17.546Z,3.5
2017-02-15T07:08:17.551Z,3.45
2017-02-15T07:09:17.571Z,3.48
2017-02-15T07:10:17.572Z,3.55
2017-02-15T07:11:17.587Z,3.51
2017-02-15T07:12:17.072Z,3.48
2017-02-15T07:13:17.083Z,3.55
2017-02-15T07:14:17.615Z,3.58
2017-02-15T07:15:17.119Z,3.55
2017-02-15T07:16:17.126Z,3.51
2017-02-15T07:17:17.627Z,3.62
2017-02-15T07:18:17.151Z,3.58
2017-02-15T07:19:17.163Z,3.58
2017-02-15T07:20:17.605Z,3.6
2017-02-15T07:21:17.614Z,3.6
2017-02-15T07:22:17.179Z,3.58
2017-02-15T07:23:17.638Z,3.62
2017-02-15T07:24:17.182Z,3.69
2017-02-15T07:25:17.199Z,3.63
2017-02-15T07:26:17.222Z,3.69
2017-02-15T07:27:17.698Z,3.74
2017-02-15T07:28:17.246Z,3.68
2017-02-15T07:29:17.739Z,3.74
2017-02-15T07:30:17.757Z,3.73
2017-02-15T07:31:17.783Z,3.76
2017-02-15T07:32:16.881Z,3.7
2017-02-15T07:33:17.769Z,3.7
2017-02-15T07:34:17.778Z,3.76
2017-02-15T07:35:17.589Z,3.78
2017-02-15T07:36:17.433Z,3.84
2017-02-15T07:37:17.459Z,3.8
2017-02-15T07:38:17.911Z,3.78
2017-02-15T07:39:17.918Z,3.83
2017-02-15T07:40:17.386Z,3.76
2017-02-15T07:41:17.398Z,3.8
2017-02-15T07:42:17.407Z,3.88
2017-02-15T07:43:17.959Z,3.84
2017-02-15T07:44:17.415Z,3.87
2017-02-15T07:45:17.955Z,3.86
2017-02-15T07:46:17.964Z,3.83
2017-02-15T07:47:17.430Z,3.86
2017-02-15T07:48:17.586Z,3.92
2017-02-15T07:49:17.596Z,3.92
2017-02-15T07:50:17.958Z,3.88
2017-02-15T07:51:17.567Z,3.95
2017-02-15T07:52:17.999Z,3.98
2017-02-15T07:53:17.479Z,3.98
2017-02-15T07:54:17.932Z,4.04
2017-02-15T07:55:17.889Z,4.04
2017-02-15T07:56:17.943Z,4.01
2017-02-15T07:57:17.590Z,4.02
2017-02-15T07:58:17.974Z,4.01
2017-02-15T07:59:17.928Z,4.08
2017-02-15T08:00:17.945Z,4.1
2017-02-15T08:01:17.583Z,4.12
2017-02-15T08:02:17.986Z,4.13
2017-02-15T08:03:18.006Z,4.26
2017-02-15T08:04:17.624Z,4.16
2017-02-15T08:05:17.611Z,4.17
2017-02-15T08:06:17.618Z,4.23
2017-02-15T08:07:18.013Z,4.19
2017-02-15T08:08:18.031Z,4.22
2017-02-15T08:09:17.668Z,4.24
2017-02-15T08:10:18.049Z,4.32
2017-02-15T08:11:17.649Z,4.28
2017-02-15T08:12:18.077Z,4.32
2017-02-15T08:13:18.088Z,4.37
2017-02-15T08:14:17.672Z,4.4
2017-02-15T08:15:17.718Z,4.42
2017-02-15T08:16:18.105Z,4.4
2017-02-15T08:17:18.237Z,4.5
2017-02-15T08:18:17.737Z,4.6
2017-02-15T08:19:18.133Z,4.62
2017-02-15T08:20:18.274Z,4.58
2017-02-15T08:21:18.283Z,4.6
2017-02-15T08:22:18.157Z,4.73
2017-02-15T08:23:18.215Z,4.7
2017-02-15T08:24:18.230Z,4.63
2017-02-15T08:25:17.805Z,4.84
2017-02-15T08:26:18.218Z,4.87
2017-02-15T08:27:17.826Z,4.92
2017-02-15T08:28:17.834Z,4.9
2017-02-15T08:29:18.230Z,4.89
2017-02-15T08:30:18.369Z,4.89
2017-02-15T08:31:18.374Z,5.04
2017-02-15T08:32:17.869Z,4.93
2017-02-15T08:33:17.883Z,5
2017-02-15T08:34:18.387Z,5.02
2017-02-15T08:35:18.392Z,5.1
2017-02-15T08:36:18.423Z,5.1
2017-02-15T08:37:17.918Z,5.14
2017-02-15T08:38:17.935Z,5.23
2017-02-15T08:39:18.441Z,5.21
2017-02-15T08:40:17.954Z,5.17
2017-02-15T08:41:18.395Z,5.29
2017-02-15T08:42:18.435Z,5.35
2017-02-15T08:43:18.027Z,5.41
2017-02-15T08:44:18.552Z,5.29
2017-02-15T08:45:17.990Z,5.35
2017-02-15T08:46:18.438Z,5.43
2017-02-15T08:47:18.549Z,5.41
2017-02-15T08:48:18.478Z,5.47
2017-02-15T08:49:18.495Z,5.56
2017-02-15T08:50:18.502Z,5.47
2017-02-15T08:51:18.504Z,5.59
2017-02-15T08:52:18.512Z,5.61
2017-02-15T08:53:18.519Z,5.65
2017-02-15T08:54:18.201Z,5.75
2017-02-15T08:55:18.537Z,5.66
2017-02-15T08:56:18.539Z,5.75
2017-02-15T08:57:18.243Z,5.8
2017-02-15T08:58:18.255Z,5.8
2017-02-15T08:59:18.563Z,5.86
2017-02-15T09:00:18.530Z,5.9
2017-02-15T09:01:18.589Z,5.9
2017-02-15T09:02:18.565Z,5.94
2017-02-15T09:03:18.588Z,5.91
2017-02-15T09:04:18.596Z,5.99
2017-02-15T09:05:18.596Z,6.02
2017-02-15T09:06:18.626Z,6.04
2017-02-15T09:07:18.230Z,6.08
2017-02-15T09:08:18.654Z,6.12
2017-02-15T09:09:18.657Z,6.19
2017-02-15T09:10:18.661Z,6.26
2017-02-15T09:11:18.290Z,6.31
2017-02-15T09:12:18.690Z,6.26
2017-02-15T09:13:18.707Z,6.35
2017-02-15T09:14:18.702Z,6.36
2017-02-15T09:15:18.715Z,6.33
2017-02-15T09:16:18.727Z,6.49
2017-02-15T09:17:18.756Z,6.48
2017-02-15T09:18:18.781Z,6.51
2017-02-15T09:19:18.743Z,6.57
2017-02-15T09:20:17.982Z,6.54
2017-02-15T09:21:18.376Z,6.56
2017-02-15T09:22:18.862Z,6.62
2017-02-15T09:23:18.404Z,6.67
2017-02-15T09:24:18.814Z,6.74
2017-02-15T09:25:18.823Z,6.6
2017-02-15T09:26:18.833Z,6.64
2017-02-15T09:27:18.868Z,6.72
2017-02-15T09:28:18.852Z,6.7
2017-02-15T09:29:18.882Z,6.72
2017-02-15T09:30:18.895Z,6.75
2017-02-15T09:31:18.890Z,6.84
2017-02-15T09:32:18.896Z,6.88
2017-02-15T09:33:18.938Z,6.88
2017-02-15T09:34:18.949Z,6.92
2017-02-15T09:35:18.928Z,6.97
2017-02-15T09:36:18.962Z,6.95
2017-02-15T09:37:18.575Z,7
2017-02-15T09:38:18.960Z,7.06
2017-02-15T09:39:19.262Z,7.06
2017-02-15T09:40:19.036Z,7.15
2017-02-15T09:41:19.018Z,7.17
2017-02-15T09:42:19.020Z,7.15
2017-02-15T09:43:19.024Z,7.2
2017-02-15T09:44:19.037Z,7.15
2017-02-15T09:45:19.062Z,7.2
2017-02-15T09:46:19.060Z,7.14
2017-02-15T09:47:18.671Z,7.17
2017-02-15T09:48:18.681Z,7.21
2017-02-15T09:49:19.091Z,7.31
2017-02-15T09:50:19.117Z,7.28
2017-02-15T09:51:19.128Z,7.35
2017-02-15T09:52:19.142Z,7.33
2017-02-15T09:53:19.155Z,7.35
2017-02-15T09:54:19.157Z,7.38
2017-02-15T09:55:19.162Z,7.43
2017-02-15T09:56:19.173Z,7.42
2017-02-15T09:57:19.194Z,7.51
2017-02-15T09:58:19.204Z,7.5
2017-02-15T09:59:19.188Z,7.56
2017-02-15T10:00:19.211Z,7.5
2017-02-15T10:01:18.840Z,7.58
2017-02-15T10:02:18.846Z,7.67
2017-02-15T10:03:19.270Z,7.69
2017-02-15T10:04:19.293Z,7.57
2017-02-15T10:05:19.253Z,7.69
2017-02-15T10:06:19.299Z,7.73
2017-02-15T10:07:19.334Z,7.73
2017-02-15T10:08:19.324Z,7.67
2017-02-15T10:09:18.951Z,7.76
2017-02-15T10:10:19.341Z,7.79
2017-02-15T10:11:19.345Z,7.8
2017-02-15T10:12:19.358Z,7.87
2017-02-15T10:13:19.388Z,7.8
2017-02-15T10:14:19.387Z,7.91
2017-02-15T10:15:19.419Z,7.98
2017-02-15T10:16:19.025Z,7.91
2017-02-15T10:17:19.424Z,8
2017-02-15T10:18:19.419Z,7.97
2017-02-15T10:19:19.447Z,8.03
2017-02-15T10:20:19.469Z,8
2017-02-15T10:21:19.482Z,8.01
2017-02-15T10:22:19.492Z,8.01
2017-02-15T10:23:19.503Z,8.1
2017-02-15T10:24:19.504Z,8.16
2017-02-15T10:25:19.520Z,8.1
2017-02-15T10:26:19.541Z,8.16
2017-02-15T10:27:19.549Z,8.16
2017-02-15T10:28:19.539Z,8.15
2017-02-15T10:29:19.171Z,8.13
2017-02-15T10:30:19.588Z,8.23
2017-02-15T10:31:19.605Z,8.24
2017-02-15T10:32:19.207Z,8.27
2017-02-15T10:33:19.629Z,8.3
2017-02-15T10:34:19.621Z,8.34
2017-02-15T10:35:19.618Z,8.33
2017-02-15T10:36:19.684Z,8.31
2017-02-15T10:37:19.664Z,8.45
2017-02-15T10:38:19.685Z,8.45
2017-02-15T10:39:19.695Z,8.52
2017-02-15T10:40:19.715Z,8.61
2017-02-15T10:41:19.723Z,8.61
2017-02-15T10:42:19.713Z,8.61
2017-02-15T10:43:19.366Z,8.66
2017-02-15T10:44:19.751Z,8.7
2017-02-15T10:45:19.756Z,8.78
2017-02-15T10:46:19.831Z,8.78
2017-02-15T10:47:19.781Z,8.76
2017-02-15T10:48:19.854Z,8.87
2017-02-15T10:49:19.823Z,8.91
2017-02-15T10:50:19.819Z,8.92
2017-02-15T10:51:19.862Z,8.85
2017-02-15T10:52:19.857Z,8.85
2017-02-15T10:53:19.870Z,8.97
2017-02-15T10:54:19.909Z,9
2017-02-15T10:55:19.895Z,9.03
2017-02-15T10:56:19.881Z,9.04
2017-02-15T10:57:19.938Z,9.14
2017-02-15T10:58:19.941Z,9.18
2017-02-15T10:59:19.957Z,9.13
2017-02-15T11:00:19.970Z,9.13
2017-02-15T11:01:19.968Z,9.18
2017-02-15T11:02:19.980Z,9.25
2017-02-15T11:03:20.022Z,9.28
2017-02-15T11:04:20.175Z,9.34
2017-02-15T11:05:20.045Z,9.26
2017-02-15T11:06:20.138Z,9.36
2017-02-15T11:07:19.677Z,9.34
2017-02-15T11:08:20.070Z,9.41
2017-02-15T11:09:20.065Z,9.43
2017-02-15T11:10:20.087Z,9.54
2017-02-15T11:11:20.090Z,9.48
2017-02-15T11:12:20.161Z,9.54
2017-02-15T11:13:20.126Z,9.54
2017-02-15T11:14:20.243Z,9.65
2017-02-15T11:15:20.253Z,9.69
2017-02-15T11:16:20.167Z,9.65
2017-02-15T11:17:20.216Z,9.87
2017-02-15T11:18:20.242Z,9.83
2017-02-15T11:19:20.325Z,9.79
2017-02-15T11:20:20.413Z,9.83
2017-02-15T11:21:20.227Z,9.83
2017-02-15T11:22:20.309Z,9.77
2017-02-15T11:23:20.423Z,9.86
2017-02-15T11:24:20.270Z,9.89
2017-02-15T11:25:20.347Z,10.01
2017-02-15T11:26:20.335Z,10.04
2017-02-15T11:27:20.317Z,10.05
2017-02-15T11:28:20.315Z,10.13
2017-02-15T11:29:20.350Z,10.13
2017-02-15T11:30:20.338Z,10.17
2017-02-15T11:31:20.357Z,10.25
2017-02-15T11:32:20.389Z,10.25
2017-02-15T11:33:20.010Z,10.3
2017-02-15T11:34:20.408Z,10.28
2017-02-15T11:35:20.430Z,10.44
2017-02-15T11:36:20.441Z,10.4
2017-02-15T11:37:20.439Z,10.44
2017-02-15T11:38:20.469Z,10.53
2017-02-15T11:39:20.491Z,10.56
2017-02-15T11:40:20.600Z,10.56
2017-02-15T11:41:20.479Z,10.59
2017-02-15T11:42:20.520Z,10.74
2017-02-15T11:43:20.536Z,10.75
2017-02-15T11:44:20.563Z,10.78
2017-02-15T11:45:20.545Z,10.74
2017-02-15T11:46:20.599Z,10.78
2017-02-15T11:47:20.637Z,10.81
2017-02-15T11:48:20.655Z,10.82
2017-02-15T11:49:20.607Z,10.92
2017-02-15T11:50:20.649Z,10.93
2017-02-15T11:51:20.659Z,10.93
2017-02-15T11:52:20.654Z,11
2017-02-15T11:53:20.669Z,10.99
2017-02-15T11:54:20.686Z,11.05
2017-02-15T11:55:20.704Z,11.15
2017-02-15T11:56:20.717Z,11.12
2017-02-15T11:57:20.724Z,11.18
2017-02-15T11:58:20.738Z,11.12
2017-02-15T11:59:20.749Z,11.23
2017-02-15T12:00:20.774Z,11.18
2017-02-15T12:01:20.779Z,11.27
2017-02-15T12:02:20.398Z,11.23
2017-02-15T12:03:20.813Z,11.33
2017-02-15T12:04:20.841Z,11.36
2017-02-15T12:05:20.549Z,11.35
2017-02-15T12:06:20.450Z,11.43
2017-02-15T12:07:20.553Z,11.4
2017-02-15T12:08:21.146Z,11.47
2017-02-15T12:09:21.010Z,11.5
2017-02-15T12:10:21.059Z,11.51
2017-02-15T12:11:20.530Z,11.51
2017-02-15T12:12:20.532Z,11.55
2017-02-15T12:13:20.978Z,11.52
2017-02-15T12:14:20.955Z,11.57
2017-02-15T12:15:20.990Z,11.62
2017-02-15T12:16:20.999Z,11.65
2017-02-15T12:17:20.598Z,11.66
2017-02-15T12:18:20.635Z,11.68
2017-02-15T12:19:21.048Z,11.73
2017-02-15T12:20:20.659Z,11.63
2017-02-15T12:21:21.087Z,11.73
2017-02-15T12:22:21.083Z,11.72
2017-02-15T12:23:21.095Z,11.8
2017-02-15T12:24:21.137Z,11.75
2017-02-15T12:25:20.735Z,11.81
2017-02-15T12:26:21.149Z,11.8
2017-02-15T12:27:21.195Z,11.86
2017-02-15T12:28:21.165Z,11.86
2017-02-15T12:29:21.185Z,11.73
2017-02-15T12:30:21.323Z,11.83
2017-02-15T12:31:21.304Z,11.86
2017-02-15T12:32:21.217Z,11.9
2017-02-15T12:33:21.261Z,11.88
2017-02-15T12:34:21.334Z,11.91
2017-02-15T12:35:21.286Z,11.9
2017-02-15T12:36:21.356Z,11.95
2017-02-15T12:37:21.325Z,11.91
2017-02-15T12:38:21.321Z,11.99
2017-02-15T12:39:21.320Z,11.99
2017-02-15T12:40:21.348Z,12
2017-02-15T12:41:21.380Z,11.91
2017-02-15T12:42:21.413Z,11.95
2017-02-15T12:43:21.387Z,12.09
2017-02-15T12:44:21.437Z,12.12
2017-02-15T12:45:21.446Z,12.09
2017-02-15T12:46:21.444Z,12.09
2017-02-15T12:47:21.479Z,12.06
2017-02-15T12:48:21.477Z,12.12
2017-02-15T12:49:21.503Z,12.15
2017-02-15T12:50:21.506Z,12.12
2017-02-15T12:51:21.637Z,12.25
2017-02-15T12:52:21.570Z,12.24
2017-02-15T12:53:21.552Z,12.27
2017-02-15T12:54:21.556Z,12.25
2017-02-15T12:55:21.196Z,12.32
2017-02-15T12:56:21.625Z,12.28
2017-02-15T12:57:21.725Z,12.27
2017-02-15T12:58:21.252Z,12.29
2017-02-15T12:59:21.254Z,12.39
2017-02-15T13:00:21.666Z,12.4
2017-02-15T13:01:21.668Z,12.42
2017-02-15T13:02:21.946Z,12.31
2017-02-15T13:03:21.799Z,12.37
2017-02-15T13:04:21.714Z,12.42
2017-02-15T13:05:21.734Z,12.39
2017-02-15T13:06:21.874Z,12.45
2017-02-15T13:07:21.755Z,12.39
2017-02-15T13:08:21.790Z,12.37
2017-02-15T13:09:21.805Z,12.53
2017-02-15T13:10:21.817Z,12.45
2017-02-15T13:11:21.833Z,12.5
2017-02-15T13:12:21.855Z,12.49
2017-02-15T13:13:21.894Z,12.5
2017-02-15T13:14:21.879Z,12.54
2017-02-15T13:15:21.518Z,12.54
2017-02-15T13:16:21.512Z,12.65
2017-02-15T13:17:21.532Z,12.62
2017-02-15T13:18:21.951Z,12.67
2017-02-15T13:19:22.070Z,12.62